createdAt,value
2017-02-15T00:05:44.052Z,0
2017-02-15T00:15:44.122Z,0
2017-02-15T00:25:44.085Z,0
2017-02-15T00:35:44.040Z,0
2017-02-15T00:45:44.084Z,0
2017-02-15T00:55:44.107Z,0
2017-02-15T01:05:44.037Z,0
2017-02-15T01:15:44.065Z,0
2017-02-15T01:25:44.173Z,0
2017-02-15T01:35:43.998Z,0
2017-02-15T01:45:44.091Z,0
2017-02-15T01:55:44.019Z,0
2017-02-15T02:05:44.004Z,0
2017-02-15T02:15:44.038Z,0
2017-02-15T02:25:43.994Z,0
2017-02-15T02:35:44.071Z,0
2017-02-15T02:45:44.057Z,0
2017-02-15T02:55:44.026Z,0
2017-02-15T03:05:44.068Z,0
2017-02-15T03:15:44.031Z,0
2017-02-15T03:25:43.970Z,0
2017-02-15T03:35:44.025Z,0
2017-02-15T03:45:43.989Z,0
2017-02-15T03:55:43.959Z,0
2017-02-15T04:05:44.049Z,0
2017-02-15T04:15:43.967Z,0
2017-02-15T04:25:43.943Z,0
2017-02-15T04:35:44.014Z,0
2017-02-15T04:45:43.976Z,0
2017-02-15T04:55:44.036Z,0
2017-02-15T05:05:43.986Z,0
2017-02-15T05:15:44.018Z,0
2017-02-15T05:25:44.019Z,0
2017-02-15T05:35:43.998Z,0
2017-02-15T05:45:43.939Z,0
2017-02-15T05:55:44.003Z,0
2017-02-15T06:05:45.022Z,0
2017-02-15T06:15:43.945Z,0
2017-02-15T06:25:43.991Z,0
2017-02-15T06:35:43.930Z,0
2017-02-15T06:45:43.878Z,5
2017-02-15T06:55:43.970Z,15
2017-02-15T07:05:43.942Z,25
2017-02-15T07:15:43.914Z,40
2017-02-15T07:25:43.958Z,50
2017-02-15T07:35:43.907Z,60
2017-02-15T07:45:44.041Z,75
2017-02-15T07:55:43.920Z,80
2017-02-15T08:05:43.899Z,85
2017-02-15T08:15:43.954Z,90
2017-02-15T08:25:43.946Z,95
2017-02-15T08:35:43.894Z,100
2017-02-15T08:45:43.985Z,105
2017-02-15T08:55:47.774Z,105
2017-02-15T09:05:44.378Z,110
2017-02-15T09:15:43.916Z,110
2017-02-15T09:25:43.902Z,115
2017-02-15T09:35:43.939Z,115
2017-02-15T09:45:44.103Z,110
2017-02-15T09:55:43.849Z,110
2017-02-15T10:05:44.947Z,115
2017-02-15T10:15:44.094Z,115
2017-02-15T10:25:43.836Z,115
2017-02-15T10:35:43.872Z,115
2017-02-15T10:45:43.834Z,115
2017-02-15T10:55:43.824Z,115
2017-02-15T11:05:44.062Z,120
2017-02-15T11:15:43.854Z,120
2017-02-15T11:25:43.820Z,120
2017-02-15T11:35:43.904Z,120
2017-02-15T11:45:43.828Z,120
2017-02-15T11:55:44.107Z,120
2017-02-15T12:05:43.815Z,120
2017-02-15T12:15:43.835Z,120
2017-02-15T12:25:43.851Z,120
2017-02-15T12:35:43.854Z,120
2017-02-15T12:45:43.849Z,120
2017-02-15T12:55:43.874Z,120
2017-02-15T13:05:43.833Z,115
2017-02-15T13:15:43.844Z,115
2017-02-15T13:25:44.079Z,115
2017-02-15T13:35:43.807Z,115
2017-02-15T13:45:43.825Z,115
2017-02-15T13:55:43.931Z,110
2017-02-15T14:05:44.420Z,110
2017-02-15T14:15:43.816Z,105
2017-02-15T14:25:43.896Z,125
2017-02-15T14:36:08.264Z,100
2017-02-15T14:55:52.492Z,95
2017-02-15T15:05:57.421Z,90
2017-02-15T15:16:13.831Z,90
2017-02-15T15:26:11.727Z,80
2017-02-15T15:46:41.996Z,65
2017-02-15T15:56:17.067Z,65
2017-02-15T16:16:00.569Z,30
2017-02-15T16:26:03.716Z,20
2017-02-15T16:46:00.691Z,5
2017-02-15T17:06:49.098Z,0
2017-02-15T17:36:24.066Z,0
2017-02-15T18:35:59.618Z,0
2017-02-15T19:16:18.515Z,0
2017-02-15T19:26:05.647Z,0
2017-02-15T20:16:14.003Z,0
2017-02-15T20:25:49.846Z,0
2017-02-15T20:36:52.807Z,0
2017-02-15T20:55:55.569Z,0
2017-02-15T21:36:48.201Z,0
2017-02-15T21:45:59.295Z,0
2017-02-15T21:56:09.767Z,0
2017-02-15T22:05:57.972Z,0
2017-02-15T22:25:58.163Z,0
2017-02-15T22:35:44.344Z,0
2017-02-15T22:46:20.108Z,0
2017-02-15T22:55:45.071Z,0
2017-02-15T23:05:44.113Z,0
2017-02-15T23:15:44.234Z,0
2017-02-15T23:25:44.105Z,0
2017-02-15T23:35:44.092Z,0
2017-02-15T23:45:44.141Z,0
2017-02-15T23:55:44.200Z,0
